TimeEDT,TemperatureF,Dew PointF,Humidity,Sea Level PressureIn,VisibilityMPH,Wind Direction,Wind SpeedMPH,Gust SpeedMPH,PrecipitationIn,Events,Conditions,WindDirDegrees,DateUTC
12:53 AM,52.0,52.0,100,30.03,7.0,Calm,Calm,-,0.04,,Overcast,0,2012-10-05 04:53:00
1:20 AM,51.8,51.8,100,30.03,2.0,Calm,Calm,-,N/A,,Overcast,0,2012-10-05 05:20:00
1:26 AM,51.8,51.8,100,30.02,1.8,Calm,Calm,-,N/A,,Overcast,0,2012-10-05 05:26:00
1:46 AM,51.8,51.8,100,30.02,1.8,SSE,4.6,-,0.01,,Overcast,150,2012-10-05 05:46:00
1:53 AM,52.0,52.0,100,30.02,1.8,SSE,3.5,-,0.01,,Overcast,150,2012-10-05 05:53:00
2:00 AM,51.8,51.8,100,30.02,6.0,Calm,Calm,-,N/A,,Overcast,0,2012-10-05 06:00:00
2:11 AM,51.8,51.8,100,30.01,2.0,SE,3.5,-,0.00,,Light Drizzle,130,2012-10-05 06:11:00
2:53 AM,52.0,51.1,97,30.00,1.8,SSE,4.6,-,0.00,,Light Drizzle,150,2012-10-05 06:53:00
3:53 AM,52.0,52.0,100,30.00,1.8,South,4.6,-,0.00,,Overcast,180,2012-10-05 07:53:00
4:53 AM,52.0,52.0,100,29.99,1.0,SSE,5.8,-,N/A,,Overcast,160,2012-10-05 08:53:00
5:53 AM,52.0,52.0,100,29.99,0.5,Calm,Calm,-,N/A,Fog,Fog,0,2012-10-05 09:53:00
6:53 AM,53.1,53.1,100,30.00,0.5,South,5.8,-,N/A,Fog,Fog,180,2012-10-05 10:53:00
7:53 AM,53.1,53.1,100,29.99,0.5,South,4.6,-,N/A,Fog,Fog,190,2012-10-05 11:53:00
8:53 AM,54.0,54.0,100,29.98,2.0,South,4.6,-,N/A,,Overcast,180,2012-10-05 12:53:00
9:53 AM,57.0,55.9,96,29.98,7.0,SSW,4.6,-,N/A,,Overcast,210,2012-10-05 13:53:00
10:53 AM,60.1,55.9,86,29.96,10.0,SW,5.8,-,N/A,,Overcast,220,2012-10-05 14:53:00
11:53 AM,60.8,55.4,82,29.96,10.0,SSW,5.8,-,N/A,,Overcast,210,2012-10-05 15:53:00
12:49 PM,62.6,57.2,82,29.95,10.0,West,3.5,-,N/A,,Overcast,260,2012-10-05 16:49:00
12:53 PM,62.1,57.0,84,29.95,10.0,Calm,Calm,-,N/A,,Overcast,0,2012-10-05 16:53:00
1:53 PM,63.0,57.0,81,29.93,10.0,Calm,Calm,-,N/A,,Mostly Cloudy,0,2012-10-05 17:53:00
2:53 PM,66.0,59.0,78,29.91,10.0,South,6.9,-,N/A,,Mostly Cloudy,190,2012-10-05 18:53:00
3:45 PM,66.2,59.0,78,29.89,10.0,SSE,10.4,-,N/A,,Scattered Clouds,150,2012-10-05 19:45:00
3:53 PM,66.0,57.9,75,29.90,10.0,South,10.4,-,N/A,,Scattered Clouds,170,2012-10-05 19:53:00
4:53 PM,64.9,57.9,78,29.88,10.0,SSE,10.4,-,N/A,,Partly Cloudy,160,2012-10-05 20:53:00
5:53 PM,62.1,57.9,86,29.90,10.0,South,8.1,-,N/A,,Scattered Clouds,190,2012-10-05 21:53:00
6:53 PM,57.9,57.0,97,29.90,10.0,South,9.2,-,N/A,,Scattered Clouds,170,2012-10-05 22:53:00
6:56 PM,57.2,57.2,100,29.90,10.0,SSE,12.7,-,N/A,,Mostly Cloudy,160,2012-10-05 22:56:00
7:34 PM,57.2,55.4,94,29.91,5.0,SSE,10.4,-,N/A,,Overcast,160,2012-10-05 23:34:00
7:53 PM,57.0,55.9,96,29.91,4.0,South,9.2,-,N/A,,Overcast,170,2012-10-05 23:53:00
8:53 PM,57.0,55.9,96,29.91,4.0,South,9.2,-,N/A,,Overcast,170,2012-10-06 00:53:00
9:53 PM,55.9,55.9,100,29.91,3.0,South,12.7,-,N/A,,Overcast,170,2012-10-06 01:53:00
10:45 PM,55.4,55.4,100,29.90,2.5,South,10.4,-,N/A,,Overcast,180,2012-10-06 02:45:00
10:53 PM,55.9,55.9,100,29.90,2.0,South,9.2,-,N/A,,Overcast,180,2012-10-06 02:53:00
11:53 PM,55.9,55.9,100,29.90,2.0,South,9.2,-,N/A,,Overcast,180,2012-10-06 03:53:00